createdAt,value
2022-07-28T00:06:06.635Z,2.60
2022-07-28T00:20:06.592Z,2.60
2022-07-28T00:34:06.654Z,2.90
2022-07-28T00:48:06.631Z,3.20
2022-07-28T01:02:06.705Z,2.70
2022-07-28T01:16:06.704Z,2.50
2022-07-28T01:30:06.650Z,2.40
2022-07-28T01:44:06.649Z,2.50
2022-07-28T01:58:06.672Z,2.20
2022-07-28T02:12:06.694Z,2.10
2022-07-28T02:26:06.705Z,2.00
2022-07-28T02:40:06.697Z,2.10
2022-07-28T02:54:06.702Z,2.00
2022-07-28T03:08:06.727Z,1.70
2022-07-28T03:22:06.718Z,1.80
2022-07-28T03:36:06.765Z,1.70
2022-07-28T03:51:06.763Z,1.80
2022-07-28T04:06:06.764Z,1.70
2022-07-28T04:22:06.774Z,1.60
2022-07-28T04:37:06.783Z,1.60
2022-07-28T04:52:06.770Z,1.60
2022-07-28T05:07:07.928Z,2.10
2022-07-28T05:22:06.784Z,2.50
2022-07-28T05:37:06.780Z,2.20
2022-07-28T05:53:06.801Z,4.40
2022-07-28T06:08:06.803Z,4.20
2022-07-28T06:24:06.799Z,3.10
2022-07-28T06:39:06.800Z,2.90
2022-07-28T06:54:10.864Z,6.60
2022-07-28T07:09:06.882Z,3.70
2022-07-28T07:24:06.898Z,3.10
2022-07-28T07:39:06.963Z,3.00
2022-07-28T07:54:06.902Z,4.10
2022-07-28T08:09:06.896Z,3.50
2022-07-28T08:24:06.882Z,2.90
2022-07-28T08:39:06.886Z,3.60
2022-07-28T08:54:06.954Z,3.00
2022-07-28T09:10:07.058Z,3.40
2022-07-28T09:25:07.073Z,3.00
2022-07-28T09:40:07.095Z,2.80
2022-07-28T09:55:07.098Z,4.00
2022-07-28T10:10:07.125Z,3.30
2022-07-28T10:25:07.115Z,3.70
2022-07-28T10:41:07.119Z,10.60
2022-07-28T10:57:07.166Z,4.80
2022-07-28T11:13:07.201Z,4.30
2022-07-28T11:29:07.168Z,4.10
2022-07-28T11:44:07.163Z,3.70
2022-07-28T12:00:07.167Z,4.60
2022-07-28T12:15:07.575Z,3.60
2022-07-28T12:31:07.194Z,6.20
2022-07-28T12:47:07.269Z,5.30
2022-07-28T13:02:07.297Z,4.40
2022-07-28T13:17:07.272Z,5.10
2022-07-28T13:32:07.400Z,4.60
2022-07-28T13:47:07.283Z,6.20
2022-07-28T14:02:15.351Z,5.70
2022-07-28T14:17:25.910Z,7.00
2022-07-28T14:32:08.763Z,6.90
2022-07-28T14:47:07.604Z,6.40
2022-07-28T15:02:07.519Z,5.70
2022-07-28T15:17:07.403Z,6.50
2022-07-28T15:32:07.452Z,4.90
2022-07-28T15:47:07.401Z,6.20
2022-07-28T16:02:07.474Z,4.20
2022-07-28T16:17:07.527Z,5.10
2022-07-28T16:32:07.526Z,6.30
2022-07-28T16:47:07.535Z,5.10
2022-07-28T17:02:07.592Z,5.20
2022-07-28T17:17:07.532Z,4.10
2022-07-28T17:32:07.538Z,5.40
2022-07-28T17:47:07.543Z,4.00
2022-07-28T18:02:07.572Z,4.00
2022-07-28T18:17:07.551Z,6.40
2022-07-28T18:33:07.591Z,5.00
2022-07-28T18:48:07.615Z,4.20
2022-07-28T19:03:07.722Z,4.80
2022-07-28T19:18:09.848Z,5.20
2022-07-28T19:33:07.644Z,4.60
2022-07-28T19:47:07.631Z,4.90
2022-07-28T20:01:07.661Z,4.60
2022-07-28T20:15:07.638Z,4.40
2022-07-28T20:29:07.642Z,4.30
2022-07-28T20:43:07.660Z,4.60
2022-07-28T20:57:07.658Z,5.00
2022-07-28T21:11:07.641Z,9.40
2022-07-28T21:25:07.705Z,4.90
2022-07-28T21:39:07.746Z,5.40
2022-07-28T21:53:07.725Z,4.60
2022-07-28T22:07:07.796Z,4.50
2022-07-28T22:21:07.944Z,4.30
2022-07-28T22:35:07.903Z,4.60
2022-07-28T22:49:07.973Z,4.20
2022-07-28T22:56:35.025Z,4.20
2022-07-28T23:09:59.389Z,4.30
2022-07-28T23:23:59.508Z,4.30
2022-07-28T23:37:59.792Z,4.60
2022-07-28T23:51:59.856Z,5.30
